Williamstown, MA

1:51 AM EST on January 29, 2015 (GMT -0500)
North Hoosac Rd | Change Station
CLOSE
Current Station
Personal Weather Station
Location: Williamstown, MA
Elevation: 646 ft
Nearby Weather Stations

Elev 646 ft 42.72 °N, 73.19 °W | Updated 13 minutes ago

Clear
Clear
-4.0 °F
Feels Like -4 °F
N
0.0
Wind Variable Wind from ESE

Today
High -- | Low -- °F
--% Chance of Precip.
Yesterday
High -- | Low -- °F
Precip. -- in
7:10 AM 5:01 PM
Waxing Gibbous, 71% visible
Pressure 30.35 in
Visibility 10.0 miles
Clouds Clear
Windchill -4 °F
Dew Point -7 °F
Humidity 86%
Rainfall 0.00 in
Snow Depth Not available.
UV 0 out of 12
Pollen .10 out of 12
Air Quality Not available.
Flu Activity Not available.
METAR KAQW 290552Z AUTO 09003KT 10SM CLR M19/M22 A3030 RMK AO2 SLP275 T11941222 11094 21200 51019

More Conditions Fewer Conditions

Pressure 30.35 in
Visibility 10.0 miles
Clouds Clear
Windchill -4 °F
Dew Point -7 °F
Humidity 86%
Rainfall 0.00 in
Snow Depth Not available.
UV 0 out of 12
Pollen .10 out of 12
Air Quality Not available.
Flu Activity Not available.
METAR KAQW 290552Z AUTO 09003KT 10SM CLR M19/M22 A3030 RMK AO2 SLP275 T11941222 11094 21200 51019

More Conditions Fewer Conditions

10-Day Weather Forecast

Almanac

Astronomy

Jan. 29, 2015 Rise Set
Actual Time
Civil Twilight
Nautical Twilight
Astronomical Twilight
Moon
Length of Visible Light
Length of Day
Tomorrow will be .
, % of the Moon is Illuminated

Today's Extremes

State Highs State Lows

Community

WunderPhotos

Upload Photos

1,791,387 photos uploaded!

WunderBlogs® & News

Nearby

Air Quality

  Air Quality AQ Index Pollutant
Not available.

Snow Depth

Station Depth Elevation

Earthquake Activity

City Distance Mag. Time & Date
Minimum magnitude displayed is 2.5.

Coastal Water Temperatures

Place Temperature

Nearby Weather Stations